Pagrindinis puslapis
METAR-TAF:

METAR-TAF

Oro uostai :

Tivatas, Juodkalnija

platuma: 42-24N, ilguma: 018-44E, Aukštis: 5 m

Dabartinis oras

Ataskaita buvo paskelbta 11 minutes, ne 18:30 UTC
Vėjas 6 kt iš Šiaurės/Šiaurės Vakarų, svyruoja nuo Vakarų/Šiaurės Vakarų ir Šiaurės Rytų
Temperatūra 19°C
Drėgmė 68%
Slėgis 1016 hPa
Matomumas 10 km arba daugiau
Mažai debesys ne aukštis 3600 ft
Su prošvaistėmis ne aukštis 5000 ft

METAR: LYTV 191830Z 33006KT 290V040 9999 FEW036 BKN050 19/13 Q1016 NOSIG

Laikas: 20:41 (18:41 UTC)

Prognozė

Ataskaita buvo paskelbta 1 valandą ir 41 minutes, ne 17:00 UTC
Prognozė galioja nuo 19 metu 18 UTC su 20 metu 18 UTC
Vėjas 15 kt iš Šiaurės/Šiaurės Rytų
Matomumas 10 km arba daugiau
Išsisklaidę debesys ne aukštis 5000 ft
Laikinai
nuo 19 metu 18 UTC su 20 metu 07 UTC
Vėjas 20 kt iš Šiaurės/Šiaurės Rytų su gūsio iki 30 kt

TAF: LYTV 191700Z 1918/2018 02015KT 9999 SCT050 TX24/2012Z TN16/2003Z TEMPO 1918/2007 03020G30KT

Orai ataskaitas ir orų prognozės (METAR, TAF).

turimą stotys yra geltonos ir raudonos taškus žemėlapyje.

Perkelti pele per norėdami pamatyti stoties vardą.

Tada spustelėkite, norėdami matyti oro stebėjimo ir prognozės.

Norėdami pakeisti žemėlapį: spustelėkite ant žalios mygtukų su juodo kryžiaus žemyn,; žalią mygtuką su brūkšneliu, jei norite nutolinti; arba žalių rodyklių gretimoms žemėlapius.


METAR-TAF: